createdAt,value
2023-05-10T00:01:47.652Z,88.35
2023-05-10T00:04:14.513Z,88.19
2023-05-10T00:06:41.240Z,90.76
2023-05-10T00:09:07.934Z,91.28
2023-05-10T00:11:34.727Z,91.53
2023-05-10T00:14:01.370Z,93.91
2023-05-10T00:16:28.188Z,92.17
2023-05-10T00:18:54.882Z,90.85
2023-05-10T00:21:21.750Z,87.50
2023-05-10T00:23:48.524Z,90.51
2023-05-10T00:26:15.245Z,91.04
2023-05-10T00:28:41.896Z,88.67
2023-05-10T00:31:08.552Z,89.49
2023-05-10T00:33:35.250Z,89.79
2023-05-10T00:36:01.963Z,89.40
2023-05-10T00:38:28.752Z,89.38
2023-05-10T00:40:55.725Z,89.64
2023-05-10T00:43:22.333Z,87.19
2023-05-10T00:45:49.264Z,88.86
2023-05-10T00:48:16.009Z,87.57
2023-05-10T00:50:42.802Z,88.61
2023-05-10T00:53:09.952Z,83.20
2023-05-10T00:55:36.804Z,82.26
2023-05-10T00:58:03.517Z,80.02
2023-05-10T01:00:30.691Z,81.06
2023-05-10T01:02:57.502Z,83.73
2023-05-10T01:05:24.312Z,84.23
2023-05-10T01:07:51.057Z,85.60
2023-05-10T01:10:17.948Z,85.77
2023-05-10T01:12:46.766Z,85.07
2023-05-10T01:15:14.079Z,86.21
2023-05-10T01:17:42.078Z,87.98
2023-05-10T01:20:09.381Z,86.37
2023-05-10T01:23:00.577Z,86.86
2023-05-10T01:25:59.697Z,88.57
2023-05-10T01:28:54.006Z,91.53
2023-05-10T01:31:32.692Z,91.11
2023-05-10T01:34:11.121Z,92.03
2023-05-10T01:36:52.210Z,94.06
2023-05-10T01:39:23.743Z,88.31
2023-05-10T01:42:06.155Z,93.53
2023-05-10T01:44:38.708Z,91.52
2023-05-10T01:47:21.713Z,90.39
2023-05-10T01:49:53.638Z,91.74
2023-05-10T01:52:27.380Z,92.67
2023-05-10T01:55:02.645Z,93.92
2023-05-10T01:57:31.407Z,92.33
2023-05-10T01:59:59.780Z,93.72
2023-05-10T02:02:27.401Z,94.82
2023-05-10T02:04:54.694Z,94.36
2023-05-10T02:07:22.076Z,94.86
2023-05-10T02:09:49.248Z,96.15
2023-05-10T02:12:16.770Z,97.84
2023-05-10T02:14:44.117Z,98.26
2023-05-10T02:17:11.082Z,99.21
2023-05-10T02:19:39.764Z,100.00
2023-05-10T02:22:07.154Z,100.00
2023-05-10T02:24:35.091Z,100.00
2023-05-10T02:27:03.735Z,100.00
2023-05-10T02:29:31.254Z,100.00
2023-05-10T02:31:58.738Z,100.00
2023-05-10T02:34:27.928Z,100.00
2023-05-10T02:36:55.387Z,100.00
2023-05-10T02:39:22.492Z,100.00
2023-05-10T02:41:50.448Z,100.00
2023-05-10T02:44:21.150Z,100.00
2023-05-10T02:46:48.076Z,100.00
2023-05-10T02:49:15.126Z,100.00
2023-05-10T02:51:55.153Z,100.00
2023-05-10T02:54:28.689Z,100.00
2023-05-10T02:57:00.618Z,100.00
2023-05-10T02:59:27.715Z,100.00
2023-05-10T03:01:54.952Z,100.00
2023-05-10T03:04:21.839Z,100.00
2023-05-10T03:06:48.643Z,100.00
2023-05-10T03:09:16.771Z,100.00
2023-05-10T03:12:17.241Z,100.00
2023-05-10T03:14:53.417Z,100.00
2023-05-10T03:17:27.101Z,100.00
2023-05-10T03:19:56.612Z,100.00
2023-05-10T03:22:30.596Z,100.00
2023-05-10T03:25:01.452Z,100.00
2023-05-10T03:27:28.960Z,100.00
2023-05-10T03:29:56.660Z,100.00
2023-05-10T03:32:24.053Z,100.00
2023-05-10T03:34:50.774Z,100.00
2023-05-10T03:37:17.377Z,100.00
2023-05-10T03:39:43.992Z,100.00
2023-05-10T03:42:12.996Z,100.00
2023-05-10T03:44:42.852Z,100.00
2023-05-10T03:47:09.680Z,100.00
2023-05-10T03:49:38.908Z,100.00
2023-05-10T03:52:06.410Z,100.00
2023-05-10T03:54:33.552Z,100.00
2023-05-10T03:57:01.334Z,100.00
2023-05-10T03:59:28.214Z,100.00
2023-05-10T04:01:54.955Z,100.00
2023-05-10T04:04:22.553Z,100.00
2023-05-10T04:06:49.408Z,100.00
2023-05-10T04:09:16.341Z,100.00
2023-05-10T04:11:43.065Z,100.00
2023-05-10T04:14:09.983Z,100.00
2023-05-10T04:16:36.702Z,100.00
2023-05-10T04:19:03.583Z,100.00
2023-05-10T04:21:30.455Z,100.00
2023-05-10T04:23:57.303Z,100.00
2023-05-10T04:26:24.561Z,100.00
2023-05-10T04:28:51.392Z,100.00
2023-05-10T04:31:18.336Z,99.86
2023-05-10T04:33:45.085Z,94.70
2023-05-10T04:36:11.847Z,83.84
2023-05-10T04:38:38.523Z,74.92
2023-05-10T04:41:09.801Z,70.73
2023-05-10T04:43:37.316Z,65.34
2023-05-10T04:46:04.804Z,61.69
2023-05-10T04:48:31.720Z,59.16
2023-05-10T04:50:58.496Z,57.27
2023-05-10T04:53:25.237Z,61.80
2023-05-10T04:55:52.091Z,65.76
2023-05-10T04:58:18.943Z,70.89
2023-05-10T05:00:45.723Z,79.66
2023-05-10T05:03:12.523Z,75.61
2023-05-10T05:05:39.287Z,75.39
2023-05-10T05:08:06.423Z,67.76
2023-05-10T05:10:33.142Z,64.08
2023-05-10T05:12:59.823Z,68.61
2023-05-10T05:15:26.569Z,70.31
2023-05-10T05:17:53.326Z,70.95
2023-05-10T05:20:20.229Z,68.64
2023-05-10T05:22:50.598Z,66.67
2023-05-10T05:25:17.570Z,72.36
2023-05-10T05:27:44.557Z,65.82
2023-05-10T05:30:11.704Z,64.82
2023-05-10T05:32:38.480Z,68.56
2023-05-10T05:35:05.594Z,73.69
2023-05-10T05:37:32.452Z,76.98
2023-05-10T05:39:59.156Z,77.18
2023-05-10T05:42:25.830Z,81.54
2023-05-10T05:44:52.541Z,79.59
2023-05-10T05:47:19.152Z,80.72
2023-05-10T05:49:48.710Z,82.50
2023-05-10T05:52:15.531Z,81.49
2023-05-10T05:54:42.229Z,83.09
2023-05-10T05:57:08.980Z,78.98
2023-05-10T05:59:35.741Z,74.00
2023-05-10T06:02:02.494Z,79.40
2023-05-10T06:04:29.364Z,74.42
2023-05-10T06:06:56.220Z,74.05
2023-05-10T06:09:24.801Z,73.47
2023-05-10T06:11:51.496Z,72.86
2023-05-10T06:14:18.320Z,77.02
2023-05-10T06:16:45.014Z,78.69
2023-05-10T06:19:11.760Z,80.16
2023-05-10T06:21:38.488Z,82.57
2023-05-10T06:24:05.868Z,84.93
2023-05-10T06:26:32.977Z,84.82
2023-05-10T06:28:59.722Z,89.73
2023-05-10T06:31:26.409Z,89.41
2023-05-10T06:33:55.318Z,92.95
2023-05-10T06:36:24.499Z,90.21
2023-05-10T06:38:52.311Z,93.47
2023-05-10T06:41:18.918Z,86.45
2023-05-10T06:43:45.502Z,81.54
2023-05-10T06:46:12.372Z,80.01
2023-05-10T06:48:39.163Z,82.58
2023-05-10T06:51:05.844Z,80.80
2023-05-10T06:53:32.512Z,77.65
2023-05-10T06:55:59.158Z,76.28
2023-05-10T06:58:25.897Z,72.35
2023-05-10T07:00:52.759Z,70.17
2023-05-10T07:03:19.501Z,72.40
2023-05-10T07:05:46.133Z,68.60
2023-05-10T07:08:12.855Z,67.61
2023-05-10T07:10:39.593Z,64.74
2023-05-10T07:13:06.338Z,67.52
2023-05-10T07:15:33.161Z,70.88
2023-05-10T07:17:59.890Z,64.70
2023-05-10T07:20:26.634Z,65.04
2023-05-10T07:22:53.337Z,63.18
2023-05-10T07:25:20.021Z,61.47
2023-05-10T07:27:49.445Z,57.26
2023-05-10T07:30:16.375Z,57.29
2023-05-10T07:32:43.587Z,56.00
2023-05-10T07:35:10.264Z,52.95
2023-05-10T07:37:37.124Z,51.27
2023-05-10T07:40:04.006Z,51.92
2023-05-10T07:42:30.676Z,51.27
2023-05-10T07:44:57.359Z,50.15
2023-05-10T07:47:24.569Z,50.42
2023-05-10T07:49:51.412Z,50.08
2023-05-10T07:52:18.115Z,50.21
2023-05-10T07:54:45.662Z,49.44
2023-05-10T07:57:12.426Z,48.70
2023-05-10T07:59:39.089Z,48.48
2023-05-10T08:02:05.945Z,48.16
2023-05-10T08:04:32.679Z,49.50
2023-05-10T08:06:59.328Z,47.97
2023-05-10T08:09:26.028Z,46.90
2023-05-10T08:11:52.899Z,47.88
2023-05-10T08:14:19.644Z,48.27
2023-05-10T08:16:46.370Z,49.16
2023-05-10T08:19:13.045Z,48.53
2023-05-10T08:21:41.571Z,48.32
2023-05-10T08:24:08.592Z,47.96
2023-05-10T08:26:35.380Z,47.40
2023-05-10T08:29:02.124Z,48.44
2023-05-10T08:31:28.883Z,46.40
2023-05-10T08:33:55.557Z,46.17
2023-05-10T08:36:25.144Z,46.19
2023-05-10T08:38:53.146Z,46.44
2023-05-10T08:41:23.144Z,45.80
2023-05-10T08:43:50.875Z,45.71
2023-05-10T08:46:19.856Z,45.95
2023-05-10T08:48:47.663Z,45.84
2023-05-10T08:51:15.454Z,45.23
2023-05-10T08:53:42.117Z,46.06
2023-05-10T08:56:09.019Z,45.07
2023-05-10T08:58:35.686Z,44.76
2023-05-10T09:01:02.610Z,44.08
2023-05-10T09:03:29.595Z,43.62
2023-05-10T09:05:57.019Z,43.17
2023-05-10T09:08:27.144Z,44.03
2023-05-10T09:10:55.284Z,44.66
2023-05-10T09:13:23.409Z,43.85
2023-05-10T09:15:50.663Z,43.63
2023-05-10T09:18:17.458Z,43.26
2023-05-10T09:20:44.332Z,44.07
2023-05-10T09:23:11.092Z,44.66
2023-05-10T09:25:39.677Z,43.89
2023-05-10T09:28:12.270Z,43.22
2023-05-10T09:30:39.433Z,43.43
2023-05-10T09:33:09.008Z,43.44
2023-05-10T09:35:35.785Z,44.06
2023-05-10T09:38:04.945Z,44.09
2023-05-10T09:40:31.992Z,45.01
2023-05-10T09:43:00.471Z,44.64
2023-05-10T09:45:29.254Z,47.44
2023-05-10T09:47:56.890Z,45.49
2023-05-10T09:50:24.275Z,43.91
2023-05-10T09:53:01.022Z,43.30
2023-05-10T09:55:39.362Z,43.08
2023-05-10T09:58:10.509Z,43.40
2023-05-10T10:00:38.856Z,43.22
2023-05-10T10:03:07.943Z,43.04
2023-05-10T10:05:36.088Z,44.84
2023-05-10T10:08:06.692Z,44.36
2023-05-10T10:10:34.494Z,44.50
2023-05-10T10:13:01.413Z,44.61
2023-05-10T10:15:28.396Z,44.21
2023-05-10T10:17:55.359Z,44.97
2023-05-10T10:20:23.677Z,43.05
2023-05-10T10:22:50.594Z,43.45
2023-05-10T10:25:19.530Z,44.83
2023-05-10T10:27:53.539Z,46.49
2023-05-10T10:30:38.849Z,43.82
2023-05-10T10:33:27.397Z,45.31
2023-05-10T10:35:55.874Z,44.89
2023-05-10T10:38:23.221Z,43.70
2023-05-10T10:40:50.486Z,44.46
2023-05-10T10:43:28.270Z,43.51
2023-05-10T10:46:20.667Z,44.65
2023-05-10T10:49:09.926Z,43.14
2023-05-10T10:51:40.364Z,40.68
2023-05-10T10:54:11.645Z,40.68
2023-05-10T10:56:38.460Z,41.07
2023-05-10T10:59:05.308Z,42.51
2023-05-10T11:01:36.637Z,42.52
2023-05-10T11:04:06.705Z,42.79
2023-05-10T11:06:35.384Z,43.12
2023-05-10T11:09:13.455Z,43.40
2023-05-10T11:11:56.091Z,44.93
2023-05-10T11:14:26.340Z,44.98
2023-05-10T11:16:53.212Z,44.96
2023-05-10T11:19:20.355Z,44.76
2023-05-10T11:21:49.522Z,44.63
2023-05-10T11:24:23.014Z,45.26
2023-05-10T11:26:53.136Z,42.81
2023-05-10T11:29:20.243Z,43.14
2023-05-10T11:31:48.082Z,42.29
2023-05-10T11:34:28.967Z,41.20
2023-05-10T11:36:56.652Z,41.04
2023-05-10T11:39:31.271Z,40.50
2023-05-10T11:41:58.845Z,40.33
2023-05-10T11:44:31.269Z,39.34
2023-05-10T11:47:01.081Z,39.53
2023-05-10T11:49:27.885Z,37.99
2023-05-10T11:51:54.597Z,39.26
2023-05-10T11:54:21.274Z,37.62
2023-05-10T11:56:48.043Z,37.09
2023-05-10T11:59:15.865Z,37.66
2023-05-10T12:01:42.880Z,36.39
2023-05-10T12:04:09.874Z,36.02
2023-05-10T12:06:41.533Z,36.37
2023-05-10T12:09:09.279Z,35.87
2023-05-10T12:11:43.869Z,37.04
2023-05-10T12:14:11.862Z,36.14
2023-05-10T12:16:38.762Z,36.06
2023-05-10T12:19:06.613Z,35.76
2023-05-10T12:21:34.472Z,35.05
2023-05-10T12:24:03.607Z,34.83
2023-05-10T12:26:30.993Z,34.89
2023-05-10T12:29:21.590Z,35.45
2023-05-10T12:31:59.413Z,35.29
2023-05-10T12:34:26.413Z,35.04
2023-05-10T12:36:54.045Z,35.48
2023-05-10T12:39:20.837Z,35.90
2023-05-10T12:41:47.553Z,35.64
2023-05-10T12:44:14.134Z,36.15
2023-05-10T12:46:40.784Z,36.78
2023-05-10T12:49:09.360Z,37.92
2023-05-10T12:51:36.538Z,38.18
2023-05-10T12:54:04.198Z,38.11
2023-05-10T12:56:30.830Z,38.50
2023-05-10T12:58:57.414Z,38.97
2023-05-10T13:01:24.044Z,38.69
2023-05-10T13:03:50.675Z,38.77
2023-05-10T13:06:17.294Z,38.51
2023-05-10T13:08:43.985Z,38.31
2023-05-10T13:11:14.065Z,39.11
2023-05-10T13:13:40.718Z,39.00
2023-05-10T13:16:07.720Z,38.19
2023-05-10T13:18:34.334Z,38.84
2023-05-10T13:21:00.928Z,38.89
2023-05-10T13:23:27.545Z,39.43
2023-05-10T13:25:54.141Z,39.32
2023-05-10T13:28:20.959Z,39.54
2023-05-10T13:30:47.570Z,39.81
2023-05-10T13:33:14.262Z,39.02
2023-05-10T13:35:40.867Z,39.50
2023-05-10T13:38:08.980Z,39.67
2023-05-10T13:40:36.959Z,39.89
2023-05-10T13:43:03.537Z,39.84
2023-05-10T13:45:30.237Z,39.82
2023-05-10T13:47:56.810Z,38.84
2023-05-10T13:50:23.645Z,39.10
2023-05-10T13:52:50.354Z,39.39
2023-05-10T13:55:17.194Z,38.93
2023-05-10T13:57:44.267Z,39.21
2023-05-10T14:00:13.560Z,38.96
2023-05-10T14:02:40.235Z,39.09
2023-05-10T14:05:11.013Z,38.77
2023-05-10T14:07:37.910Z,38.86
2023-05-10T14:10:04.843Z,39.23
2023-05-10T14:12:33.787Z,39.37
2023-05-10T14:15:03.293Z,38.83
2023-05-10T14:17:29.895Z,39.47
2023-05-10T14:19:56.471Z,39.94
2023-05-10T14:22:23.757Z,39.67
2023-05-10T14:24:50.367Z,39.23
2023-05-10T14:27:19.521Z,38.94
2023-05-10T14:29:47.590Z,39.31
2023-05-10T14:32:14.343Z,38.64
2023-05-10T14:34:40.953Z,38.09
2023-05-10T14:37:07.747Z,37.65
2023-05-10T14:39:34.557Z,37.55
2023-05-10T14:42:01.179Z,37.19
2023-05-10T14:44:27.887Z,37.38
2023-05-10T14:46:54.523Z,37.04
2023-05-10T14:49:23.734Z,37.10
2023-05-10T14:51:50.583Z,37.09
2023-05-10T14:54:17.183Z,36.76
2023-05-10T14:56:43.961Z,36.24
2023-05-10T14:59:10.738Z,35.94
2023-05-10T15:01:38.909Z,35.51
2023-05-10T15:04:06.042Z,35.37
2023-05-10T15:06:33.779Z,35.62
2023-05-10T15:09:00.997Z,35.34
2023-05-10T15:11:28.067Z,35.08
2023-05-10T15:13:54.784Z,35.34
2023-05-10T15:16:21.535Z,34.44
2023-05-10T15:18:49.424Z,32.66
2023-05-10T15:21:16.095Z,32.12
2023-05-10T15:23:42.743Z,31.17
2023-05-10T15:26:09.306Z,30.75
2023-05-10T15:28:35.867Z,31.28
2023-05-10T15:31:02.606Z,31.59
2023-05-10T15:33:29.710Z,31.66
2023-05-10T15:35:56.730Z,30.79
2023-05-10T15:38:23.588Z,30.61
2023-05-10T15:40:50.323Z,31.62
2023-05-10T15:43:17.232Z,32.91
2023-05-10T15:45:43.858Z,32.27
2023-05-10T15:48:10.510Z,31.81
2023-05-10T15:50:37.276Z,31.89
2023-05-10T15:53:04.035Z,31.23
2023-05-10T15:55:30.710Z,31.93
2023-05-10T15:57:57.465Z,31.96
2023-05-10T16:00:24.238Z,31.35
2023-05-10T16:02:54.207Z,31.16
2023-05-10T16:05:21.507Z,31.29
2023-05-10T16:07:49.247Z,31.56
2023-05-10T16:10:16.376Z,32.16
2023-05-10T16:12:43.142Z,32.98
2023-05-10T16:15:10.281Z,33.21
2023-05-10T16:17:37.549Z,33.87
2023-05-10T16:20:04.874Z,32.74
2023-05-10T16:22:31.551Z,33.39
2023-05-10T16:24:59.051Z,33.52
2023-05-10T16:27:28.706Z,32.75
2023-05-10T16:29:55.450Z,33.18
2023-05-10T16:32:22.297Z,34.49
2023-05-10T16:34:50.278Z,35.90
2023-05-10T16:37:17.547Z,35.51
2023-05-10T16:39:44.363Z,35.39
2023-05-10T16:42:11.183Z,34.92
2023-05-10T16:44:37.869Z,34.10
2023-05-10T16:47:04.634Z,34.04
2023-05-10T16:49:31.598Z,35.29
2023-05-10T16:51:58.249Z,36.56
2023-05-10T16:54:24.857Z,37.42
2023-05-10T16:56:51.474Z,37.85
2023-05-10T16:59:18.169Z,37.84
2023-05-10T17:01:45.904Z,37.88
2023-05-10T17:04:14.316Z,38.34
2023-05-10T17:06:41.499Z,38.35
2023-05-10T17:09:08.156Z,38.42
2023-05-10T17:11:34.748Z,38.54
2023-05-10T17:14:01.915Z,38.22
2023-05-10T17:16:29.935Z,38.24
2023-05-10T17:18:56.971Z,38.43
2023-05-10T17:21:23.680Z,39.09
2023-05-10T17:23:50.419Z,39.27
2023-05-10T17:26:17.483Z,39.42
2023-05-10T17:28:44.168Z,39.57
2023-05-10T17:31:10.786Z,39.88
2023-05-10T17:33:40.959Z,40.41
2023-05-10T17:36:08.055Z,40.80
2023-05-10T17:38:34.765Z,41.00
2023-05-10T17:41:01.499Z,41.57
2023-05-10T17:43:28.119Z,41.71
2023-05-10T17:45:54.796Z,41.98
2023-05-10T17:48:22.071Z,42.36
2023-05-10T17:50:50.646Z,42.70
2023-05-10T17:53:17.391Z,43.10
2023-05-10T17:55:44.074Z,43.02
2023-05-10T17:58:12.203Z,43.11
2023-05-10T18:00:39.092Z,43.00
2023-05-10T18:03:15.256Z,43.15
2023-05-10T18:05:41.957Z,43.54
2023-05-10T18:08:08.754Z,44.06
2023-05-10T18:10:37.700Z,44.43
2023-05-10T18:13:07.430Z,44.57
2023-05-10T18:15:35.503Z,45.00
2023-05-10T18:18:03.596Z,45.28
2023-05-10T18:20:31.727Z,45.71
2023-05-10T18:22:58.742Z,45.42
2023-05-10T18:25:25.801Z,44.71
2023-05-10T18:27:52.603Z,45.12
2023-05-10T18:30:19.624Z,45.85
2023-05-10T18:32:46.349Z,45.98
2023-05-10T18:35:23.267Z,45.88
2023-05-10T18:37:50.058Z,46.20
2023-05-10T18:40:17.842Z,46.71
2023-05-10T18:42:46.661Z,46.74
2023-05-10T18:45:13.637Z,47.14
2023-05-10T18:47:40.397Z,46.92
2023-05-10T18:50:07.848Z,46.73
2023-05-10T18:52:36.005Z,46.58
2023-05-10T18:55:03.663Z,46.45
2023-05-10T18:57:30.600Z,46.56
2023-05-10T18:59:57.260Z,46.38
2023-05-10T19:02:25.376Z,46.01
2023-05-10T19:04:52.334Z,46.20
2023-05-10T19:07:19.034Z,46.22
2023-05-10T19:09:45.853Z,46.84
2023-05-10T19:12:12.759Z,46.45
2023-05-10T19:14:39.440Z,46.50
2023-05-10T19:17:07.989Z,47.05
2023-05-10T19:19:36.141Z,46.75
2023-05-10T19:22:02.942Z,45.64
2023-05-10T19:24:29.616Z,45.43
2023-05-10T19:26:58.046Z,45.78
2023-05-10T19:29:25.788Z,45.66
2023-05-10T19:31:53.186Z,46.21
2023-05-10T19:34:20.431Z,45.74
2023-05-10T19:36:47.237Z,45.81
2023-05-10T19:39:14.091Z,45.57
2023-05-10T19:41:41.006Z,45.92
2023-05-10T19:44:07.982Z,45.93
2023-05-10T19:46:37.312Z,45.98
2023-05-10T19:49:04.055Z,46.19
2023-05-10T19:51:31.062Z,45.79
2023-05-10T19:53:58.293Z,45.68
2023-05-10T19:56:26.909Z,45.90
2023-05-10T19:58:53.616Z,45.83
2023-05-10T20:01:20.401Z,46.11
2023-05-10T20:03:47.117Z,46.61
2023-05-10T20:06:14.168Z,46.79
2023-05-10T20:08:40.806Z,47.76
2023-05-10T20:11:07.436Z,50.31
2023-05-10T20:13:34.073Z,48.45
2023-05-10T20:16:00.802Z,49.56
2023-05-10T20:18:27.644Z,49.50
2023-05-10T20:20:55.534Z,49.59
2023-05-10T20:23:22.719Z,52.05
2023-05-10T20:25:49.567Z,52.56
2023-05-10T20:28:20.797Z,51.21
2023-05-10T20:30:47.539Z,50.84
2023-05-10T20:33:15.765Z,50.01
2023-05-10T20:35:42.562Z,48.68
2023-05-10T20:38:09.244Z,48.40
2023-05-10T20:40:36.716Z,48.28
2023-05-10T20:43:05.358Z,48.09
2023-05-10T20:45:32.702Z,48.11
2023-05-10T20:47:59.459Z,49.45
2023-05-10T20:50:26.247Z,49.58
2023-05-10T20:52:53.033Z,50.21
2023-05-10T20:55:20.767Z,49.86
2023-05-10T20:57:47.602Z,49.18
2023-05-10T21:00:15.220Z,49.96
2023-05-10T21:02:44.521Z,49.75
2023-05-10T21:05:11.684Z,49.37
2023-05-10T21:07:39.500Z,50.38
2023-05-10T21:10:08.313Z,49.74
2023-05-10T21:12:35.058Z,50.46
2023-05-10T21:15:01.772Z,50.27
2023-05-10T21:17:28.497Z,50.04
2023-05-10T21:19:55.275Z,49.38
2023-05-10T21:22:21.967Z,48.86
2023-05-10T21:24:48.700Z,48.30
2023-05-10T21:27:15.413Z,47.73
2023-05-10T21:29:42.125Z,47.78
2023-05-10T21:32:09.688Z,47.87
2023-05-10T21:34:36.626Z,47.09
2023-05-10T21:37:03.423Z,46.87
2023-05-10T21:39:30.813Z,47.06
2023-05-10T21:42:00.047Z,46.82
2023-05-10T21:44:28.257Z,46.09
2023-05-10T21:46:56.457Z,45.70
2023-05-10T21:49:31.578Z,46.55
2023-05-10T21:52:00.757Z,46.27
2023-05-10T21:54:34.063Z,46.08
2023-05-10T21:57:00.967Z,45.73
2023-05-10T21:59:27.620Z,45.26
2023-05-10T22:01:54.502Z,45.13
2023-05-10T22:04:21.138Z,45.26
2023-05-10T22:06:49.126Z,46.15
2023-05-10T22:09:15.841Z,46.82
2023-05-10T22:11:42.619Z,47.20
2023-05-10T22:14:09.371Z,48.35
2023-05-10T22:16:36.168Z,49.28
2023-05-10T22:19:02.995Z,50.19
2023-05-10T22:21:29.932Z,50.68
2023-05-10T22:23:56.712Z,53.57
2023-05-10T22:26:23.418Z,55.25
2023-05-10T22:28:50.590Z,56.72
2023-05-10T22:31:17.475Z,59.15
2023-05-10T22:33:44.736Z,58.96
2023-05-10T22:36:11.789Z,59.23
2023-05-10T22:38:38.558Z,61.78
2023-05-10T22:41:05.310Z,62.39
2023-05-10T22:43:32.097Z,61.13
2023-05-10T22:45:58.827Z,63.20
2023-05-10T22:48:25.431Z,62.05
2023-05-10T22:50:52.094Z,61.58
2023-05-10T22:53:18.686Z,58.95
2023-05-10T22:55:47.146Z,58.90
2023-05-10T22:58:13.857Z,57.72
2023-05-10T23:00:41.179Z,57.34
2023-05-10T23:03:07.977Z,57.93
2023-05-10T23:05:34.744Z,58.77
2023-05-10T23:08:01.618Z,56.62
2023-05-10T23:10:28.326Z,56.26
2023-05-10T23:12:56.117Z,56.22
2023-05-10T23:15:22.994Z,56.13
2023-05-10T23:17:49.797Z,55.79
2023-05-10T23:20:17.110Z,57.21
2023-05-10T23:22:43.947Z,55.77
2023-05-10T23:25:10.928Z,56.02
2023-05-10T23:27:37.703Z,56.11
2023-05-10T23:30:04.732Z,56.83
2023-05-10T23:32:31.400Z,55.85
2023-05-10T23:34:58.080Z,57.13
2023-05-10T23:37:25.437Z,58.34
2023-05-10T23:39:55.338Z,60.28
2023-05-10T23:42:22.031Z,59.20
2023-05-10T23:44:48.668Z,59.07
2023-05-10T23:47:15.710Z,60.56
2023-05-10T23:49:42.564Z,59.97
2023-05-10T23:52:09.426Z,60.31
2023-05-10T23:54:36.076Z,60.20
2023-05-10T23:57:03.377Z,60.77
2023-05-10T23:59:30.380Z,60.96
